Aérodrome :
LOGIN :

S'inscrire | Disclaimer

   EN    FR    IT 

 










Légende :    VFR   VFR Marginal   IFR   IFR Intensif   IFR Très Intensif
Visi : 
Plafond : 
>= 8 km
>= 3000ft
5 à 8 km
1000 à 3000 ft
1500m à 5 km
500 à 1000 ft
800 à 1500m
200 à 500 ft
< 800m
< 200 ft
Symboles :   Orages  Brouillard  Fortes neiges  Fortes précipitations  Vent > 20 kt
SIGMETs :   Divers  Orages  Givrage  Turbulence  Onde Orograph.  Cendres Volcan.







- Altitude de l'aérodrome : 3 ft
- Code IATA : DHR


EHKD - Den Helder De Kooy

DERNIER METAR :
  • 270825Z AUTO 21011KT 180V240 9999 BKN011 OVC013 11/08 Q1012 GRN 20009KT 9999 SCT010 BKN014 BECMG SCT015

METARs EXPIRÉS :
  • 270755Z AUTO 21011KT 180V240 9999 FEW009 OVC011 10/08 Q1012 GRN 20009KT 9999 SCT010 BKN014 BECMG SCT015
  • 270725Z AUTO 21011KT 9999 FEW007 SCT009 OVC160 10/08 Q1012 GRN 20009KT 9999 SCT006 SCT120 BECMG NSC
  • 270655Z AUTO 22010KT 180V250 9999 SCT007 BKN008 OVC110 10/08 Q1012 GRN 20008KT 9999 SCT006 SCT120 TEMPO NSC
  • 270642Z AUTO 21008KT 170V240 9999 FEW006 BKN007 OVC008 10/09 Q1012 GRN 20008KT 9999 SCT006 SCT120 TEMPO NSC
  • 270631Z AUTO 19007KT 8000 BR SCT006 BKN007 BKN130 09/09 Q1012 YLO 20006KT 8000 NSC TEMPO SCT006 SCT120
  • 270627Z AUTO 20007KT 170V230 8000 BR FEW006 SCT007 BKN130 10/09 Q1012 GRN 20006KT 8000 NSC TEMPO SCT006 SCT120
  • 270625Z AUTO 20007KT 170V230 7000 BR SCT006 BKN130 09/09 Q1012 YLO 20006KT 8000 NSC TEMPO SCT006 SCT120
  • 270616Z AUTO 20008KT 7000 BR SCT006 BKN120 BKN280 09/09 Q1012 YLO 20006KT 8000 NSC TEMPO SCT006 SCT120
  • 270603Z AUTO 20007KT 6000 BR FEW006 BKN120 09/08 Q1012 WHT 20006KT 7000 NSC TEMPO FEW005 SCT008
  • 270556Z AUTO 19006KT 6000 BR SCT006 BKN120 BKN290 08/08 Q1012 YLO 20006KT 7000 NSC TEMPO FEW005 SCT008
  • 270555Z AUTO 19006KT 6000 BR FEW006 BKN280 08/08 Q1012 WHT 20006KT 7000 NSC TEMPO FEW005 SCT008
  • 270525Z AUTO 19004KT 5000 BR OVC120 07/07 Q1012 WHT 20006KT 7000 NSC TEMPO FEW005 SCT008

TAF TAF EHKD
Valide du 27 à 05h jusqu'au 27 à 17h UTC


270429Z 2705/2717 21005KT 7000 OVC130
PROB30
TEMPO 2705/2709 FEW005 BKN007
Pas de NOTAMs connus pour ce terrain.



MET'MAP, la Météo Aéronautique d'un coup d'oeil ! - Copyright ORBIFLY Décembre 2007 - Disclaimer

ORBIFLY MET'MAP TEAM :

Programmation & Développement : Alexandra Zaïnal
Conception & Développement : Baudouin d'Aumeries
Co-Programmation & Développement : Marc-Olivier Méhu
Soutien technique & logistique : Manuel Goepfert

Contact : metmap@orbifly.com




SOURCES & CREDITS :

   NOAA